createdAt,value
2022-08-07T00:01:43.938Z,14.72
2022-08-07T00:04:09.484Z,14.71
2022-08-07T00:06:51.276Z,14.67
2022-08-07T00:09:22.789Z,14.67
2022-08-07T00:11:55.373Z,14.62
2022-08-07T00:14:30.024Z,14.59
2022-08-07T00:17:01.795Z,14.54
2022-08-07T00:19:34.111Z,14.38
2022-08-07T00:22:24.649Z,14.42
2022-08-07T00:25:07.060Z,14.44
2022-08-07T00:27:35.773Z,14.44
2022-08-07T00:30:26.820Z,14.45
2022-08-07T00:32:56.174Z,14.42
2022-08-07T00:35:24.648Z,14.43
2022-08-07T00:37:51.866Z,14.41
2022-08-07T00:40:36.124Z,14.41
2022-08-07T00:43:03.948Z,14.39
2022-08-07T00:45:36.741Z,14.34
2022-08-07T00:48:07.917Z,14.29
2022-08-07T00:50:51.341Z,14.22
2022-08-07T00:53:20.544Z,14.17
2022-08-07T00:56:02.346Z,14.16
2022-08-07T00:58:30.329Z,14.12
2022-08-07T01:00:57.126Z,14.08
2022-08-07T01:03:54.873Z,14.07
2022-08-07T01:06:10.602Z,14.10
2022-08-07T01:08:51.375Z,14.09
2022-08-07T01:12:27.578Z,14.03
2022-08-07T01:14:08.007Z,13.97
2022-08-07T01:16:36.745Z,13.90
2022-08-07T01:19:14.816Z,13.91
2022-08-07T01:21:47.250Z,13.85
2022-08-07T01:24:14.323Z,13.83
2022-08-07T01:26:51.635Z,13.80
2022-08-07T01:29:22.754Z,13.78
2022-08-07T01:31:51.819Z,13.75
2022-08-07T01:34:19.647Z,13.70
2022-08-07T01:36:57.877Z,13.69
2022-08-07T01:39:40.482Z,13.69
2022-08-07T01:42:39.772Z,13.63
2022-08-07T01:45:17.874Z,13.64
2022-08-07T01:48:27.407Z,13.63
2022-08-07T01:50:37.332Z,13.60
2022-08-07T01:53:09.143Z,13.60
2022-08-07T01:55:44.167Z,13.55
2022-08-07T01:58:27.283Z,13.54
2022-08-07T02:01:10.036Z,13.43
2022-08-07T02:03:56.394Z,13.35
2022-08-07T02:06:31.241Z,13.31
2022-08-07T02:09:05.983Z,13.25
2022-08-07T02:12:03.528Z,13.20
2022-08-07T02:14:40.331Z,13.19
2022-08-07T02:17:16.634Z,13.24
2022-08-07T02:20:04.797Z,13.19
2022-08-07T02:22:38.441Z,13.20
2022-08-07T02:25:13.813Z,13.12
2022-08-07T02:27:54.712Z,13.01
2022-08-07T02:30:22.693Z,13.02
2022-08-07T02:33:00.622Z,13.06
2022-08-07T02:36:30.865Z,13.13
2022-08-07T02:38:35.606Z,13.07
2022-08-07T02:41:04.713Z,13.04
2022-08-07T02:43:37.937Z,13.06
2022-08-07T02:46:07.439Z,12.99
2022-08-07T02:48:35.759Z,12.93
2022-08-07T02:51:29.282Z,12.89
2022-08-07T02:53:58.228Z,12.84
2022-08-07T02:56:28.697Z,12.81
2022-08-07T02:59:02.098Z,12.73
2022-08-07T03:01:35.093Z,12.70
2022-08-07T03:04:07.748Z,12.67
2022-08-07T03:06:46.168Z,12.67
2022-08-07T03:09:44.659Z,12.66
2022-08-07T03:12:06.671Z,12.63
2022-08-07T03:14:37.750Z,12.58
2022-08-07T03:17:08.801Z,12.61
2022-08-07T03:19:37.367Z,12.65
2022-08-07T03:22:07.867Z,12.63
2022-08-07T03:24:46.097Z,12.60
2022-08-07T03:27:14.733Z,12.53
2022-08-07T03:29:59.975Z,12.51
2022-08-07T03:32:33.489Z,12.50
2022-08-07T03:35:17.726Z,12.45
2022-08-07T03:37:53.505Z,12.43
2022-08-07T03:40:27.464Z,12.43
2022-08-07T03:43:04.491Z,12.40
2022-08-07T03:45:43.504Z,12.42
2022-08-07T03:48:15.759Z,12.33
2022-08-07T03:50:55.652Z,12.30
2022-08-07T03:53:49.919Z,12.31
2022-08-07T03:56:14.316Z,12.25
2022-08-07T03:59:08.326Z,12.20
2022-08-07T04:01:30.188Z,12.17
2022-08-07T04:03:59.196Z,12.13
2022-08-07T04:06:37.423Z,12.10
2022-08-07T04:09:15.991Z,12.04
2022-08-07T04:12:23.581Z,12.04
2022-08-07T04:14:39.027Z,12.01
2022-08-07T04:17:19.758Z,11.93
2022-08-07T04:19:52.667Z,11.94
2022-08-07T04:22:27.594Z,11.89
2022-08-07T04:25:01.352Z,11.89
2022-08-07T04:27:29.056Z,11.90
2022-08-07T04:30:10.249Z,11.87
2022-08-07T04:32:58.140Z,11.81
2022-08-07T04:35:35.310Z,11.78
2022-08-07T04:38:14.189Z,11.79
2022-08-07T04:40:51.607Z,11.75
2022-08-07T04:43:53.531Z,11.76
2022-08-07T04:46:20.078Z,11.79
2022-08-07T04:49:24.372Z,11.78
2022-08-07T04:52:08.456Z,11.73
2022-08-07T04:54:59.863Z,11.69
2022-08-07T04:58:16.317Z,11.70
2022-08-07T05:00:40.447Z,11.73
2022-08-07T05:03:38.912Z,11.69
2022-08-07T05:07:00.211Z,11.67
2022-08-07T05:09:57.903Z,11.72
2022-08-07T05:12:51.370Z,11.73
2022-08-07T05:15:25.703Z,11.79
2022-08-07T05:18:00.429Z,11.85
2022-08-07T05:20:54.898Z,11.96
2022-08-07T05:23:29.972Z,12.08
2022-08-07T05:26:13.701Z,12.15
2022-08-07T05:28:50.025Z,12.24
2022-08-07T05:31:22.162Z,12.36
2022-08-07T05:34:05.147Z,12.38
2022-08-07T05:36:42.473Z,12.48
2022-08-07T05:40:07.345Z,12.62
2022-08-07T05:42:12.528Z,12.59
2022-08-07T05:44:46.437Z,12.72
2022-08-07T05:47:38.085Z,12.85
2022-08-07T05:50:10.014Z,12.96
2022-08-07T05:52:36.916Z,13.01
2022-08-07T05:55:10.769Z,13.06
2022-08-07T05:57:42.680Z,13.11
2022-08-07T06:00:16.026Z,13.16
2022-08-07T06:02:53.718Z,13.24
2022-08-07T06:05:28.184Z,13.30
2022-08-07T06:08:30.316Z,13.39
2022-08-07T06:10:51.349Z,13.50
2022-08-07T06:14:10.707Z,13.54
2022-08-07T06:16:10.044Z,13.58
2022-08-07T06:18:39.567Z,13.68
2022-08-07T06:22:16.971Z,13.81
2022-08-07T06:24:52.288Z,13.88
2022-08-07T06:26:45.152Z,13.98
2022-08-07T06:29:14.184Z,14.08
2022-08-07T06:31:49.883Z,14.16
2022-08-07T06:34:20.767Z,14.23
2022-08-07T06:36:52.137Z,14.30
2022-08-07T06:40:15.663Z,14.32
2022-08-07T06:42:35.167Z,14.43
2022-08-07T06:45:18.302Z,14.62
2022-08-07T06:47:58.854Z,14.72
2022-08-07T06:50:33.487Z,14.81
2022-08-07T06:53:04.101Z,14.90
2022-08-07T06:55:54.021Z,14.98
2022-08-07T06:58:27.631Z,15.03
2022-08-07T07:01:06.973Z,15.10
2022-08-07T07:03:49.125Z,15.18
2022-08-07T07:06:26.109Z,15.23
2022-08-07T07:08:54.390Z,15.27
2022-08-07T07:12:09.131Z,15.38
2022-08-07T07:14:10.048Z,15.48
2022-08-07T07:16:49.669Z,15.57
2022-08-07T07:19:57.751Z,15.66
2022-08-07T07:22:32.196Z,15.72
2022-08-07T07:25:02.752Z,15.80
2022-08-07T07:27:35.675Z,15.80
2022-08-07T07:30:37.979Z,15.84
2022-08-07T07:33:07.771Z,15.91
2022-08-07T07:35:51.831Z,15.98
2022-08-07T07:38:26.003Z,15.99
2022-08-07T07:41:01.868Z,16.07
2022-08-07T07:44:13.714Z,16.14
2022-08-07T07:46:37.413Z,16.22
2022-08-07T07:49:09.179Z,16.24
2022-08-07T07:51:58.164Z,16.32
2022-08-07T07:54:28.042Z,16.35
2022-08-07T07:56:57.494Z,16.46
2022-08-07T07:59:51.487Z,16.57
2022-08-07T08:02:34.093Z,16.62
2022-08-07T08:05:14.171Z,16.57
2022-08-07T08:07:59.649Z,16.61
2022-08-07T08:10:37.907Z,16.77
2022-08-07T08:13:10.664Z,16.86
2022-08-07T08:15:58.335Z,16.87
2022-08-07T08:18:28.090Z,16.96
2022-08-07T08:20:58.565Z,17.05
2022-08-07T08:23:46.647Z,17.10
2022-08-07T08:26:34.431Z,17.16
2022-08-07T08:29:04.227Z,17.25
2022-08-07T08:31:58.718Z,17.33
2022-08-07T08:34:33.604Z,17.37
2022-08-07T08:37:02.832Z,17.37
2022-08-07T08:39:39.523Z,17.45
2022-08-07T08:42:34.167Z,17.46
2022-08-07T08:45:13.201Z,17.46
2022-08-07T08:47:56.296Z,17.47
2022-08-07T08:50:39.790Z,17.59
2022-08-07T08:53:51.810Z,17.66
2022-08-07T08:56:27.563Z,17.77
2022-08-07T08:59:20.566Z,17.87
2022-08-07T09:02:05.217Z,17.99
2022-08-07T09:04:47.194Z,18.05
2022-08-07T09:07:16.741Z,18.11
2022-08-07T09:10:07.953Z,18.12
2022-08-07T09:12:53.021Z,18.17
2022-08-07T09:16:24.754Z,18.23
2022-08-07T09:18:41.452Z,18.36
2022-08-07T09:21:57.769Z,18.44
2022-08-07T09:24:59.098Z,18.57
2022-08-07T09:28:00.537Z,18.62
2022-08-07T09:30:55.249Z,18.65
2022-08-07T09:33:57.656Z,18.71
2022-08-07T09:36:28.571Z,18.82
2022-08-07T09:39:54.598Z,18.89
2022-08-07T09:42:39.048Z,19.03
2022-08-07T09:47:51.360Z,18.99
2022-08-07T09:48:19.021Z,19.09
2022-08-07T09:50:55.981Z,19.20
2022-08-07T09:53:24.510Z,19.21
2022-08-07T09:56:37.206Z,19.22
2022-08-07T09:59:26.890Z,19.33
2022-08-07T10:02:29.556Z,19.42
2022-08-07T10:06:01.305Z,19.62
2022-08-07T10:08:40.565Z,19.71
2022-08-07T10:12:01.167Z,19.81
2022-08-07T10:14:37.059Z,19.80
2022-08-07T10:18:01.758Z,19.96
2022-08-07T10:20:57.896Z,19.87
2022-08-07T10:24:06.303Z,20.00
2022-08-07T10:26:53.787Z,20.25
2022-08-07T10:30:06.973Z,20.36
2022-08-07T10:33:00.048Z,20.51
2022-08-07T10:35:55.425Z,20.73
2022-08-07T10:38:42.154Z,20.88
2022-08-07T10:41:52.413Z,20.95
2022-08-07T10:44:38.398Z,20.94
2022-08-07T10:47:16.049Z,21.03
2022-08-07T10:49:55.687Z,21.38
2022-08-07T10:52:33.893Z,21.48
2022-08-07T10:55:27.041Z,21.62
2022-08-07T10:58:32.973Z,21.21
2022-08-07T11:01:24.981Z,21.33
2022-08-07T11:04:23.174Z,21.32
2022-08-07T11:06:58.233Z,21.43
2022-08-07T11:10:09.676Z,21.73
2022-08-07T11:12:49.239Z,22.17
2022-08-07T11:15:34.163Z,22.17
2022-08-07T11:18:18.281Z,22.18
2022-08-07T11:21:03.135Z,22.19
2022-08-07T11:23:45.598Z,22.10
2022-08-07T11:26:31.334Z,22.12
2022-08-07T11:29:13.202Z,22.78
2022-08-07T11:32:01.854Z,23.26
2022-08-07T11:34:50.625Z,23.09
2022-08-07T11:37:38.624Z,22.96
2022-08-07T11:40:53.913Z,23.23
2022-08-07T11:43:41.540Z,23.14
2022-08-07T11:46:30.300Z,23.40
2022-08-07T11:49:51.068Z,23.48
2022-08-07T11:52:19.745Z,23.61
2022-08-07T11:56:25.317Z,23.07
2022-08-07T11:58:57.456Z,22.98
2022-08-07T12:01:59.042Z,22.99
2022-08-07T12:04:49.277Z,23.09
2022-08-07T12:07:38.992Z,23.17
2022-08-07T12:10:19.171Z,23.24
2022-08-07T12:13:03.370Z,23.84
2022-08-07T12:16:05.779Z,23.84
2022-08-07T12:18:45.131Z,23.29
2022-08-07T12:21:21.183Z,23.40
2022-08-07T12:24:38.181Z,23.67
2022-08-07T12:27:18.507Z,23.79
2022-08-07T12:30:02.947Z,24.39
2022-08-07T12:32:49.097Z,24.60
2022-08-07T12:35:17.375Z,24.72
2022-08-07T12:38:10.732Z,24.27
2022-08-07T12:40:48.528Z,23.94
2022-08-07T12:44:02.110Z,23.91
2022-08-07T12:46:32.772Z,23.86
2022-08-07T12:49:48.665Z,24.11
2022-08-07T12:52:28.965Z,24.77
2022-08-07T12:55:17.684Z,25.16
2022-08-07T12:58:01.085Z,25.53
2022-08-07T13:00:52.095Z,25.63
2022-08-07T13:04:02.939Z,25.16
2022-08-07T13:07:05.273Z,24.83
2022-08-07T13:10:28.390Z,24.61
2022-08-07T13:12:56.155Z,24.62
2022-08-07T13:15:36.099Z,25.82
2022-08-07T13:18:34.311Z,27.49
2022-08-07T13:21:37.842Z,26.17
2022-08-07T13:24:29.307Z,25.13
2022-08-07T13:27:20.509Z,27.02
2022-08-07T13:29:56.133Z,29.32
2022-08-07T13:32:41.402Z,26.84
2022-08-07T13:35:21.275Z,26.34
2022-08-07T13:38:08.832Z,26.01
2022-08-07T13:41:13.493Z,26.99
2022-08-07T13:43:52.398Z,29.02
2022-08-07T13:46:33.356Z,31.53
2022-08-07T13:49:03.707Z,31.27
2022-08-07T13:52:04.913Z,30.26
2022-08-07T13:54:30.389Z,28.52
2022-08-07T13:57:02.683Z,28.49
2022-08-07T13:59:34.249Z,29.45
2022-08-07T14:02:10.683Z,29.67
2022-08-07T14:04:54.361Z,29.24
2022-08-07T14:07:27.434Z,28.94
2022-08-07T14:10:02.135Z,29.04
2022-08-07T14:12:57.440Z,28.29
2022-08-07T14:15:31.968Z,27.60
2022-08-07T14:18:29.893Z,26.94
2022-08-07T14:21:20.632Z,27.30
2022-08-07T14:24:08.939Z,28.31
2022-08-07T14:26:51.213Z,28.56
2022-08-07T14:30:09.346Z,29.09
2022-08-07T14:32:12.687Z,28.98
2022-08-07T14:37:36.376Z,27.03
2022-08-07T14:40:16.211Z,26.57
2022-08-07T14:43:58.940Z,27.59
2022-08-07T14:46:11.375Z,28.25
2022-08-07T14:52:04.500Z,28.98
2022-08-07T14:57:18.846Z,29.25
2022-08-07T15:00:03.253Z,28.42
2022-08-07T15:02:34.924Z,27.81
2022-08-07T15:05:03.041Z,27.59
2022-08-07T15:07:51.020Z,27.55
2022-08-07T15:10:26.721Z,28.87
2022-08-07T15:13:11.585Z,29.39
2022-08-07T15:15:42.067Z,28.89
2022-08-07T15:18:28.606Z,28.27
2022-08-07T15:21:08.283Z,28.12
2022-08-07T15:27:10.025Z,26.91
2022-08-07T15:30:08.644Z,27.94
2022-08-07T15:36:01.927Z,28.74
2022-08-07T15:38:17.594Z,28.95
2022-08-07T15:41:23.865Z,29.08
2022-08-07T15:44:01.030Z,29.52
2022-08-07T15:49:18.103Z,29.94
2022-08-07T15:54:30.864Z,29.77
2022-08-07T15:57:03.376Z,30.31
2022-08-07T15:59:39.824Z,30.66
2022-08-07T16:02:23.810Z,30.34
2022-08-07T16:04:57.699Z,29.57
2022-08-07T16:08:31.234Z,29.81
2022-08-07T16:10:22.646Z,29.11
2022-08-07T16:13:57.606Z,28.91
2022-08-07T16:16:49.924Z,28.58
2022-08-07T16:19:58.782Z,28.74
2022-08-07T16:22:38.240Z,28.41
2022-08-07T16:25:23.235Z,28.06
2022-08-07T16:30:08.246Z,28.07
2022-08-07T16:31:50.773Z,28.02
2022-08-07T16:34:51.513Z,27.76
2022-08-07T16:38:04.117Z,27.55
2022-08-07T16:40:30.733Z,27.35
2022-08-07T16:43:04.208Z,27.15
2022-08-07T16:46:21.414Z,26.77
2022-08-07T16:50:27.097Z,26.88
2022-08-07T16:52:41.797Z,26.87
2022-08-07T16:55:18.542Z,26.76
2022-08-07T16:58:02.232Z,26.93
2022-08-07T17:00:50.138Z,26.95
2022-08-07T17:03:58.014Z,27.04
2022-08-07T17:06:42.545Z,27.17
2022-08-07T17:10:08.115Z,27.32
2022-08-07T17:12:34.510Z,27.22
2022-08-07T17:15:07.445Z,27.33
2022-08-07T17:17:55.346Z,27.26
2022-08-07T17:20:35.556Z,26.91
2022-08-07T17:23:22.439Z,26.89
2022-08-07T17:26:23.486Z,26.72
2022-08-07T17:29:19.076Z,26.51
2022-08-07T17:32:49.375Z,26.28
2022-08-07T17:35:51.369Z,26.23
2022-08-07T17:38:33.394Z,26.07
2022-08-07T17:42:04.455Z,25.72
2022-08-07T17:44:41.708Z,25.61
2022-08-07T17:47:38.223Z,25.48
2022-08-07T17:50:16.408Z,25.53
2022-08-07T17:53:01.019Z,25.43
2022-08-07T17:55:55.795Z,25.26
2022-08-07T17:58:40.474Z,25.33
2022-08-07T18:01:24.939Z,25.35
2022-08-07T18:04:16.612Z,25.43
2022-08-07T18:07:20.503Z,25.45
2022-08-07T18:10:05.834Z,25.42
2022-08-07T18:13:09.666Z,25.40
2022-08-07T18:15:54.805Z,25.16
2022-08-07T18:18:46.499Z,25.08
2022-08-07T18:21:55.106Z,24.97
2022-08-07T18:24:35.554Z,24.88
2022-08-07T18:27:08.170Z,24.90
2022-08-07T18:30:05.750Z,24.88
2022-08-07T18:32:52.314Z,24.70
2022-08-07T18:35:21.832Z,24.57
2022-08-07T18:38:55.947Z,24.50
2022-08-07T18:41:17.145Z,24.33
2022-08-07T18:44:05.613Z,24.19
2022-08-07T18:46:51.194Z,23.99
2022-08-07T18:50:30.415Z,23.93
2022-08-07T18:52:51.907Z,23.74
2022-08-07T18:55:40.979Z,23.61
2022-08-07T18:58:25.168Z,23.47
2022-08-07T19:02:17.427Z,23.32
2022-08-07T19:04:14.482Z,23.20
2022-08-07T19:06:51.559Z,23.05
2022-08-07T19:09:57.454Z,22.94
2022-08-07T19:12:48.621Z,22.89
2022-08-07T19:16:02.172Z,22.74
2022-08-07T19:18:34.501Z,22.59
2022-08-07T19:21:48.092Z,22.54
2022-08-07T19:24:30.795Z,22.44
2022-08-07T19:28:29.518Z,22.15
2022-08-07T19:31:04.084Z,21.94
2022-08-07T19:32:59.800Z,21.81
2022-08-07T19:35:28.430Z,21.88
2022-08-07T19:38:03.282Z,21.74
2022-08-07T19:40:38.481Z,21.70
2022-08-07T19:43:21.629Z,21.56
2022-08-07T19:46:10.709Z,21.49
2022-08-07T19:48:43.609Z,21.43
2022-08-07T19:51:20.509Z,21.45
2022-08-07T19:54:35.746Z,21.45
2022-08-07T19:58:02.557Z,21.29
2022-08-07T19:59:41.712Z,21.10
2022-08-07T20:02:19.840Z,20.99
2022-08-07T20:04:57.892Z,20.85
2022-08-07T20:07:47.201Z,20.81
2022-08-07T20:10:36.282Z,20.61
2022-08-07T20:13:23.015Z,20.56
2022-08-07T20:15:57.560Z,20.58
2022-08-07T20:18:33.359Z,20.37
2022-08-07T20:21:14.559Z,20.20
2022-08-07T20:23:54.229Z,20.07
2022-08-07T20:26:29.916Z,19.96
2022-08-07T20:29:10.656Z,19.86
2022-08-07T20:31:46.401Z,19.85
2022-08-07T20:34:15.032Z,19.78
2022-08-07T20:36:43.977Z,19.68
2022-08-07T20:40:01.401Z,19.55
2022-08-07T20:42:14.985Z,19.34
2022-08-07T20:44:45.648Z,19.29
2022-08-07T20:47:25.002Z,19.19
2022-08-07T20:49:58.049Z,19.17
2022-08-07T20:52:50.717Z,19.00
2022-08-07T20:55:14.861Z,18.93
2022-08-07T20:58:02.878Z,18.96
2022-08-07T21:00:46.047Z,18.94
2022-08-07T21:03:23.272Z,18.82
2022-08-07T21:06:12.301Z,18.76
2022-08-07T21:09:14.126Z,18.70
2022-08-07T21:11:50.172Z,18.54
2022-08-07T21:14:33.906Z,18.52
2022-08-07T21:18:01.145Z,18.44
2022-08-07T21:20:00.906Z,18.33
2022-08-07T21:22:38.766Z,18.28
2022-08-07T21:25:20.123Z,18.15
2022-08-07T21:28:19.102Z,18.09
2022-08-07T21:31:15.060Z,18.01
2022-08-07T21:34:21.702Z,17.97
2022-08-07T21:37:00.673Z,17.87
2022-08-07T21:39:54.980Z,17.69
2022-08-07T21:42:42.376Z,17.56
2022-08-07T21:46:10.583Z,17.47
2022-08-07T21:48:42.352Z,17.43
2022-08-07T21:51:28.539Z,17.36
2022-08-07T21:54:27.540Z,17.28
2022-08-07T21:57:39.852Z,17.23
2022-08-07T22:00:22.281Z,17.11
2022-08-07T22:02:55.111Z,17.04
2022-08-07T22:05:44.296Z,16.99
2022-08-07T22:08:14.528Z,16.97
2022-08-07T22:10:49.592Z,16.66
2022-08-07T22:13:17.168Z,16.66
2022-08-07T22:16:40.234Z,16.62
2022-08-07T22:19:23.767Z,16.44
2022-08-07T22:22:10.894Z,16.54
2022-08-07T22:25:05.716Z,16.61
2022-08-07T22:28:24.633Z,16.59
2022-08-07T22:30:35.534Z,16.35
2022-08-07T22:33:13.065Z,16.32
2022-08-07T22:36:11.978Z,16.30
2022-08-07T22:39:01.098Z,16.24
2022-08-07T22:42:03.237Z,16.28
2022-08-07T22:44:29.316Z,16.29
2022-08-07T22:47:16.877Z,16.29
2022-08-07T22:50:20.654Z,16.30
2022-08-07T22:54:05.333Z,16.30
2022-08-07T22:56:13.009Z,16.11
2022-08-07T22:59:05.022Z,16.04
2022-08-07T23:02:01.202Z,15.98
2022-08-07T23:04:58.580Z,15.94
2022-08-07T23:07:58.261Z,15.88
2022-08-07T23:10:59.848Z,15.88
2022-08-07T23:13:48.871Z,15.78
2022-08-07T23:17:15.593Z,15.77
2022-08-07T23:20:13.530Z,15.79
2022-08-07T23:24:06.625Z,15.76
2022-08-07T23:26:25.045Z,15.64
2022-08-07T23:29:04.137Z,15.61
2022-08-07T23:34:23.333Z,15.62
2022-08-07T23:35:22.517Z,15.56
2022-08-07T23:38:19.235Z,15.46
2022-08-07T23:41:16.374Z,15.34
2022-08-07T23:44:29.743Z,15.31
2022-08-07T23:47:16.645Z,15.28
2022-08-07T23:49:56.348Z,15.22
2022-08-07T23:53:16.958Z,15.19
2022-08-07T23:55:52.070Z,15.24
2022-08-07T23:58:39.033Z,15.11
